Airfield :
LOGIN :

Register | Disclaimer

   EN    FR    IT 

 










Legend :    VFR   Marginal VFR   IFR   Intensive IFR   Very Intensive IFR
Visi :
Ceiling :
>= 8 km
>= 3000ft
5 to 8 km
1000 to 3000 ft
1500m to 5 km
500 to 1000 ft
800 to 1500m
200 to 500 ft
< 800m
< 200 ft
Symbols :   Thunderstorms  Fog  Heavy snow  Heavy precipitations  Wind > 20 kt
SIGMETs :     Misc.  Thunderstorms  Icing  Turbulence  Mountain Waves  Volcanic Ashes






- Airport Elevation : 681 ft
- IATA code : LBA


EGNM - Leeds Bradford

CURRENT METAR :
  • 071520Z 26016KT 9999 FEW013 SCT020 13/07 Q1011

EXPIRED METARs :
  • 071450Z 25015KT 210V270 9999 FEW013 SCT020 14/09 Q1011
  • 071420Z 25015G26KT 9999 FEW012 SCT017 14/09 Q1011
  • 071350Z 24010G22KT 9999 FEW010 SCT014 13/10 Q1011
  • 071320Z 24012KT 9999 FEW013 SCT014 13/10 Q1011

TAF TAF EGNM
Valid from the 07 at 12:00 until the 08 at 12:00 UTC


071101Z 0712/0812 24012KT 9999 SCT025
PROB30
TEMPO 0712/0724 26018G30KT 7000 SHRA
ATIS : +44 113 250 9696 (x2489)



MET'MAP, your aeronautical weather chart ! - Copyright ORBIFLY December 2007 - Disclaimer

ORBIFLY MET'MAP TEAM :

Programming & Development : Alexandra Zaïnal
Original concept : Baudouin d'Aumeries
Technical & hardware support : Manuel Goepfert
Assistance : Marc-Olivier Méhu




SOURCES & CREDITS :

   NOAA